createdAt,value
2018-09-06T00:01:15.583Z,99.90
2018-09-06T00:07:20.764Z,99.90
2018-09-06T00:13:25.460Z,99.90
2018-09-06T00:19:30.211Z,99.90
2018-09-06T00:25:35.807Z,99.90
2018-09-06T00:31:41.699Z,99.90
2018-09-06T00:37:46.747Z,99.90
2018-09-06T00:43:51.655Z,99.90
2018-09-06T00:49:56.522Z,99.90
2018-09-06T00:56:01.371Z,99.90
2018-09-06T01:02:06.661Z,99.90
2018-09-06T01:08:14.438Z,99.90
2018-09-06T01:14:19.454Z,99.90
2018-09-06T01:20:24.347Z,99.90
2018-09-06T01:26:29.634Z,99.90
2018-09-06T01:32:34.877Z,99.90
2018-09-06T01:38:39.889Z,99.90
2018-09-06T01:44:44.841Z,99.90
2018-09-06T01:50:49.636Z,99.90
2018-09-06T01:56:54.460Z,99.90
2018-09-06T02:02:59.650Z,99.90
2018-09-06T02:09:05.854Z,99.90
2018-09-06T02:15:11.122Z,99.90
2018-09-06T02:21:15.959Z,99.90
2018-09-06T02:27:20.819Z,99.90
2018-09-06T02:33:25.721Z,99.90
2018-09-06T02:39:30.558Z,99.90
2018-09-06T02:45:35.495Z,99.90
2018-09-06T02:51:41.706Z,99.90
2018-09-06T02:57:47.065Z,99.90
2018-09-06T03:03:51.818Z,99.90
2018-09-06T03:09:56.645Z,99.90
2018-09-06T03:16:02.018Z,99.90
2018-09-06T03:22:06.847Z,99.90
2018-09-06T03:28:13.113Z,99.90
2018-09-06T03:34:17.853Z,99.90
2018-09-06T03:40:22.833Z,99.90
2018-09-06T03:46:27.573Z,99.90
2018-09-06T03:52:32.391Z,99.90
2018-09-06T03:58:37.546Z,99.90
2018-09-06T04:04:44.039Z,99.90
2018-09-06T04:10:48.926Z,99.90
2018-09-06T04:16:53.793Z,99.90
2018-09-06T04:22:58.568Z,99.90
2018-09-06T04:29:03.567Z,99.90
2018-09-06T04:35:09.569Z,99.90
2018-09-06T04:41:15.391Z,99.90
2018-09-06T04:47:20.170Z,99.90
2018-09-06T04:53:24.909Z,99.90
2018-09-06T04:59:29.843Z,99.90
2018-09-06T05:05:34.720Z,99.90
2018-09-06T05:11:40.859Z,99.90
2018-09-06T05:17:46.471Z,99.90
2018-09-06T05:23:51.232Z,99.90
2018-09-06T05:29:56.535Z,99.90
2018-09-06T05:36:01.463Z,99.90
2018-09-06T05:42:06.636Z,99.90
2018-09-06T05:48:11.981Z,99.90
2018-09-06T05:54:16.880Z,99.90
2018-09-06T06:00:26.957Z,99.90
2018-09-06T06:06:31.703Z,99.90
2018-09-06T06:12:36.457Z,99.90
2018-09-06T06:18:41.598Z,99.90
2018-09-06T06:24:46.620Z,99.90
2018-09-06T06:30:51.524Z,99.90
2018-09-06T06:36:56.513Z,99.90
2018-09-06T06:43:01.363Z,99.90
2018-09-06T06:49:06.839Z,99.90
2018-09-06T06:55:12.081Z,99.90
2018-09-06T07:01:17.519Z,99.90
2018-09-06T07:07:22.286Z,99.40
2018-09-06T07:13:27.248Z,94.60
2018-09-06T07:19:32.197Z,93.30
2018-09-06T07:25:36.981Z,96.60
2018-09-06T07:31:42.552Z,99.10
2018-09-06T07:37:47.454Z,99.90
2018-09-06T07:43:52.277Z,99.90
2018-09-06T07:49:57.129Z,99.90
2018-09-06T07:56:02.205Z,99.90
2018-09-06T08:02:07.079Z,99.90
2018-09-06T08:08:12.346Z,99.40
2018-09-06T08:14:17.292Z,99.10
2018-09-06T08:20:22.132Z,98.20
2018-09-06T08:26:27.404Z,98.50
2018-09-06T08:32:32.159Z,98.00
2018-09-06T08:38:37.070Z,96.10
2018-09-06T08:44:42.354Z,95.10
2018-09-06T08:50:47.665Z,93.80
2018-09-06T08:56:52.764Z,94.20
2018-09-06T09:02:57.846Z,93.00
2018-09-06T09:09:02.527Z,90.70
2018-09-06T09:15:07.921Z,88.20
2018-09-06T09:21:13.622Z,86.70
2018-09-06T09:27:18.478Z,79.20
2018-09-06T09:33:23.384Z,74.90
2018-09-06T09:39:28.283Z,72.80
2018-09-06T09:45:33.042Z,68.20
2018-09-06T09:51:37.905Z,63.20
2018-09-06T09:57:43.490Z,60.40
2018-09-06T10:03:53.465Z,58.70
2018-09-06T10:09:58.590Z,56.80
2018-09-06T10:16:03.702Z,52.40
2018-09-06T10:22:09.154Z,48.80
2018-09-06T10:28:14.263Z,45.70
2018-09-06T10:34:19.324Z,46.00
2018-09-06T10:40:24.239Z,44.90
2018-09-06T10:46:28.899Z,43.50
2018-09-06T10:52:33.937Z,42.80
2018-09-06T10:58:39.032Z,42.00
2018-09-06T11:04:44.476Z,42.60
2018-09-06T11:10:49.568Z,41.90
2018-09-06T11:16:54.353Z,44.10
2018-09-06T11:22:59.148Z,44.00
2018-09-06T11:29:03.891Z,44.40
2018-09-06T11:35:08.742Z,46.20
2018-09-06T11:41:13.585Z,47.00
2018-09-06T11:47:19.036Z,45.30
2018-09-06T11:53:23.721Z,45.90
2018-09-06T11:59:28.508Z,47.00
2018-09-06T12:05:33.348Z,49.50
2018-09-06T12:11:38.260Z,48.90
2018-09-06T12:17:44.379Z,52.40
2018-09-06T12:23:49.307Z,53.60
2018-09-06T12:29:54.115Z,54.30
2018-09-06T12:35:59.072Z,55.60
2018-09-06T12:42:04.008Z,55.10
2018-09-06T12:48:09.148Z,54.20
2018-09-06T12:54:14.327Z,53.30
2018-09-06T13:00:19.087Z,53.00
2018-09-06T13:06:23.885Z,51.90
2018-09-06T13:12:28.692Z,54.30
2018-09-06T13:18:33.522Z,55.30
2018-09-06T13:24:38.641Z,54.50
2018-09-06T13:30:43.591Z,57.30
2018-09-06T13:36:48.779Z,57.40
2018-09-06T13:42:53.553Z,55.00
2018-09-06T13:48:58.216Z,52.90
2018-09-06T13:55:03.094Z,51.00
2018-09-06T14:01:07.895Z,51.30
2018-09-06T14:07:13.523Z,54.20
2018-09-06T14:13:18.352Z,55.70
2018-09-06T14:19:23.114Z,55.10
2018-09-06T14:25:27.960Z,56.30
2018-09-06T14:31:32.746Z,56.50
2018-09-06T14:37:37.705Z,57.50
2018-09-06T14:43:43.633Z,57.80
2018-09-06T14:49:48.404Z,57.40
2018-09-06T14:55:53.228Z,57.70
2018-09-06T15:01:57.985Z,58.60
2018-09-06T15:08:02.708Z,63.00
2018-09-06T15:14:09.366Z,69.10
2018-09-06T15:20:14.345Z,73.70
2018-09-06T15:26:19.128Z,76.40
2018-09-06T15:32:23.990Z,90.00
2018-09-06T15:38:28.846Z,99.90
2018-09-06T15:44:33.590Z,99.90
2018-09-06T15:50:39.193Z,99.90
2018-09-06T15:56:44.109Z,99.90
2018-09-06T16:02:48.857Z,99.90
2018-09-06T16:08:54.199Z,99.90
2018-09-06T16:14:58.979Z,99.90
2018-09-06T16:21:03.771Z,99.90
2018-09-06T16:27:08.693Z,99.90
2018-09-06T16:33:14.765Z,99.90
2018-09-06T16:39:19.491Z,99.90
2018-09-06T16:45:24.387Z,99.90
2018-09-06T16:51:29.240Z,99.90
2018-09-06T16:57:34.836Z,99.90
2018-09-06T17:03:39.827Z,99.90
2018-09-06T17:09:45.467Z,99.90
2018-09-06T17:15:50.389Z,99.90
2018-09-06T17:21:55.549Z,99.90
2018-09-06T17:28:00.417Z,99.90
2018-09-06T17:34:05.291Z,99.90
2018-09-06T17:40:10.117Z,99.90
2018-09-06T17:46:15.548Z,99.90
2018-09-06T17:52:20.401Z,99.90
2018-09-06T17:58:25.163Z,99.90
2018-09-06T18:04:29.965Z,99.90
2018-09-06T18:10:34.947Z,99.90
2018-09-06T18:16:40.573Z,99.90
2018-09-06T18:22:45.352Z,99.90
2018-09-06T18:28:50.246Z,99.90
2018-09-06T18:34:56.063Z,99.90
2018-09-06T18:41:00.866Z,99.90
2018-09-06T18:47:05.856Z,99.90
2018-09-06T18:53:13.138Z,99.90
2018-09-06T18:59:18.250Z,99.90
2018-09-06T19:05:23.188Z,99.90
2018-09-06T19:11:28.623Z,99.90
2018-09-06T19:17:33.972Z,99.90
2018-09-06T19:23:39.148Z,99.90
2018-09-06T19:29:45.151Z,99.90
2018-09-06T19:35:49.933Z,99.90
2018-09-06T19:41:54.813Z,99.90
2018-09-06T19:47:59.702Z,99.90
2018-09-06T19:54:04.526Z,99.90
2018-09-06T20:00:11.219Z,99.90
2018-09-06T20:06:16.553Z,99.90
2018-09-06T20:12:21.738Z,99.90
2018-09-06T20:18:26.607Z,99.90
2018-09-06T20:24:31.572Z,99.90
2018-09-06T20:30:36.523Z,99.90
2018-09-06T20:36:41.661Z,99.90
2018-09-06T20:42:47.398Z,99.90
2018-09-06T20:48:52.657Z,99.90
2018-09-06T20:54:57.425Z,99.90
2018-09-06T21:01:02.266Z,99.90
2018-09-06T21:07:07.218Z,99.90
2018-09-06T21:13:13.373Z,99.90
2018-09-06T21:19:18.164Z,99.90
2018-09-06T21:25:23.101Z,99.90
2018-09-06T21:31:27.924Z,99.90
2018-09-06T21:37:33.471Z,99.90
2018-09-06T21:43:38.357Z,99.90
2018-09-06T21:49:43.227Z,99.90
2018-09-06T21:55:48.143Z,99.90
2018-09-06T22:01:53.151Z,99.90
2018-09-06T22:07:57.983Z,99.90
2018-09-06T22:14:02.805Z,99.90
2018-09-06T22:20:07.762Z,99.90
2018-09-06T22:26:12.933Z,99.90
2018-09-06T22:32:17.788Z,99.90
2018-09-06T22:38:22.652Z,99.90
2018-09-06T22:44:27.494Z,99.90
2018-09-06T22:50:32.409Z,99.90
2018-09-06T22:56:37.232Z,99.90
2018-09-06T23:02:47.251Z,99.90
2018-09-06T23:08:52.042Z,99.90
2018-09-06T23:14:57.034Z,99.90
2018-09-06T23:21:02.055Z,99.90
2018-09-06T23:27:06.840Z,99.90
2018-09-06T23:33:11.933Z,99.90
2018-09-06T23:39:16.784Z,99.90
2018-09-06T23:45:21.620Z,99.90
2018-09-06T23:51:26.565Z,99.90
2018-09-06T23:57:31.284Z,99.90
